Zaragoza, Spain

6:47 PM CET en Febrero 20, 2017 (GMT +0100)
Zaragoza | | Change Station

Alt 846 ft 41.67 °N, 1.02 °W | Updated 17 minutes ago

Clear
Despejado
55 ° F
Sensación térmica 55 ° F
N
8
Viento Variable Viento desde Oeste

Hoy
Alta -- | Baja -- ° F
--% Posibilidad de precipitaciones
Ayer
Alta -- | Baja -- ° F
Precip. -- pul
Presión 30.27 pul
Visibilidad -9999.0 Millas
Nubes
Punto de rocío 43 ° F
Humedad 63%
Precipitaciones 0.00 pul
Espesor de la nieve No disponible.
7:52 AM 6:43 PM
Creciente menguante, 32% visible
METAR LEZG 201730Z 27007KT CAVOK 13/06 Q1025
Presión 30.27 pul
Visibilidad -9999.0 Millas
Nubes
Punto de rocío 43 ° F
Humedad 63%
Precipitaciones 0.00 pul
Espesor de la nieve No disponible.
7:52 AM 6:43 PM
Creciente menguante, 32% visible
METAR LEZG 201730Z 27007KT CAVOK 13/06 Q1025

Get Your Daily Forecast Email!

Thanks for signing up!

Be on the lookout for a verification email in your inbox.

You'll start receiving the daily forecast at 8 AM.

×

10-Day Weather Forecast

×

Almanac

Astronomía

Feb. 20, 2017 Salida Puesta
Hora real
Crepúsculo civil
Crepúsculo náutico
Crepúsculo astronómico
Luna
Horas de luz
Horas de luz
Tomorrow will be .
, % of the Moon is Illuminated

Extremos de hoy

Máximos del país Bajas del país

Community

WunderPhotos

Upload Photos

1,962,540 ¡fotos cargadas!

WunderBlog® & News

Nearby

Calidad del aire

  Calidad del aire Índice AQ Contaminante
Not available.

Grosos de nieve

Estación Profundido Altura

Actividad de terremotos

Ciudad Distance Mag. Tiempo y dato
Magnitud mínima muestra es 2,5.

Temperaturas de aguas costeras

Lugar Temperatura

Stations

Estaciones meteorológicas cercanas

Ubicación de la estación Temp. Vientos helados Punto de rocío Humedad Viento Precip. Alt Actualizado Tipo